sensor_id;sensor_type;location;lat;lon;timestamp;P1;durP1;ratioP1;P2;durP2;ratioP2
32329;SDS011;18807;52.434;13.238;2022-10-22T00:11:30;15.15;;;9.82;;
32329;SDS011;18807;52.434;13.238;2022-10-22T00:19:04;14.77;;;9.43;;
32329;SDS011;18807;52.434;13.238;2022-10-22T00:26:39;13.45;;;9.40;;
32329;SDS011;18807;52.434;13.238;2022-10-22T00:34:13;12.40;;;9.15;;
32329;SDS011;18807;52.434;13.238;2022-10-22T00:41:49;13.07;;;9.60;;
32329;SDS011;18807;52.434;13.238;2022-10-22T00:49:24;12.93;;;9.63;;
32329;SDS011;18807;52.434;13.238;2022-10-22T00:56:59;13.85;;;9.45;;
32329;SDS011;18807;52.434;13.238;2022-10-22T01:04:33;12.23;;;8.15;;
32329;SDS011;18807;52.434;13.238;2022-10-22T01:12:08;13.82;;;9.48;;
32329;SDS011;18807;52.434;13.238;2022-10-22T01:19:56;11.90;;;8.63;;
32329;SDS011;18807;52.434;13.238;2022-10-22T01:27:43;12.85;;;9.18;;
32329;SDS011;18807;52.434;13.238;2022-10-22T01:35:30;11.48;;;7.95;;
32329;SDS011;18807;52.434;13.238;2022-10-22T01:43:08;12.68;;;8.25;;
32329;SDS011;18807;52.434;13.238;2022-10-22T01:58:41;10.00;;;7.43;;
32329;SDS011;18807;52.434;13.238;2022-10-22T02:06:23;10.68;;;7.20;;
32329;SDS011;18807;52.434;13.238;2022-10-22T02:14:00;9.43;;;6.82;;
32329;SDS011;18807;52.434;13.238;2022-10-22T02:21:37;13.70;;;7.82;;
32329;SDS011;18807;52.434;13.238;2022-10-22T02:29:13;13.30;;;8.57;;
32329;SDS011;18807;52.434;13.238;2022-10-22T02:36:52;12.80;;;7.38;;
32329;SDS011;18807;52.434;13.238;2022-10-22T02:44:26;10.48;;;7.68;;
32329;SDS011;18807;52.434;13.238;2022-10-22T02:52:02;11.40;;;7.75;;
32329;SDS011;18807;52.434;13.238;2022-10-22T02:59:35;11.10;;;7.43;;
32329;SDS011;18807;52.434;13.238;2022-10-22T03:07:10;10.43;;;7.68;;
32329;SDS011;18807;52.434;13.238;2022-10-22T03:14:44;10.35;;;7.10;;
32329;SDS011;18807;52.434;13.238;2022-10-22T03:22:20;12.02;;;8.00;;
32329;SDS011;18807;52.434;13.238;2022-10-22T03:29:57;10.63;;;7.50;;
32329;SDS011;18807;52.434;13.238;2022-10-22T03:37:33;10.30;;;7.17;;
32329;SDS011;18807;52.434;13.238;2022-10-22T03:45:09;11.68;;;7.88;;
32329;SDS011;18807;52.434;13.238;2022-10-22T03:52:45;12.57;;;7.50;;
32329;SDS011;18807;52.434;13.238;2022-10-22T04:00:18;11.30;;;7.80;;
32329;SDS011;18807;52.434;13.238;2022-10-22T04:07:54;12.15;;;8.40;;
32329;SDS011;18807;52.434;13.238;2022-10-22T04:23:02;13.40;;;8.85;;
32329;SDS011;18807;52.434;13.238;2022-10-22T04:30:37;11.88;;;8.05;;
32329;SDS011;18807;52.434;13.238;2022-10-22T04:38:12;12.98;;;8.38;;
32329;SDS011;18807;52.434;13.238;2022-10-22T04:45:46;12.45;;;8.32;;
32329;SDS011;18807;52.434;13.238;2022-10-22T04:53:21;12.00;;;8.23;;
32329;SDS011;18807;52.434;13.238;2022-10-22T05:04:26;11.65;;;8.00;;
32329;SDS011;18807;52.434;13.238;2022-10-22T05:12:00;16.95;;;8.30;;
32329;SDS011;18807;52.434;13.238;2022-10-22T05:19:36;9.23;;;6.85;;
32329;SDS011;18807;52.434;13.238;2022-10-22T05:27:10;11.40;;;6.72;;
32329;SDS011;18807;52.434;13.238;2022-10-22T05:42:19;11.50;;;7.93;;
32329;SDS011;18807;52.434;13.238;2022-10-22T05:49:54;10.95;;;7.22;;
32329;SDS011;18807;52.434;13.238;2022-10-22T05:57:29;12.18;;;7.85;;
32329;SDS011;18807;52.434;13.238;2022-10-22T06:05:04;13.73;;;7.07;;
32329;SDS011;18807;52.434;13.238;2022-10-22T06:12:38;10.30;;;6.88;;
32329;SDS011;18807;52.434;13.238;2022-10-22T06:20:14;12.77;;;8.17;;
32329;SDS011;18807;52.434;13.238;2022-10-22T06:27:48;9.85;;;7.40;;
32329;SDS011;18807;52.434;13.238;2022-10-22T06:42:58;11.50;;;8.05;;
32329;SDS011;18807;52.434;13.238;2022-10-22T06:50:33;11.82;;;8.23;;
32329;SDS011;18807;52.434;13.238;2022-10-22T06:58:07;16.70;;;9.35;;
32329;SDS011;18807;52.434;13.238;2022-10-22T07:05:42;12.63;;;8.85;;
32329;SDS011;18807;52.434;13.238;2022-10-22T07:20:51;14.00;;;9.90;;
32329;SDS011;18807;52.434;13.238;2022-10-22T07:36:01;14.27;;;9.80;;
32329;SDS011;18807;52.434;13.238;2022-10-22T07:43:37;13.60;;;9.07;;
32329;SDS011;18807;52.434;13.238;2022-10-22T07:51:12;14.73;;;10.02;;
32329;SDS011;18807;52.434;13.238;2022-10-22T07:58:46;16.25;;;9.90;;
32329;SDS011;18807;52.434;13.238;2022-10-22T08:06:21;13.73;;;8.90;;
32329;SDS011;18807;52.434;13.238;2022-10-22T08:21:29;14.55;;;9.60;;
32329;SDS011;18807;52.434;13.238;2022-10-22T08:36:38;17.42;;;9.30;;
32329;SDS011;18807;52.434;13.238;2022-10-22T08:52:01;13.57;;;9.15;;
32329;SDS011;18807;52.434;13.238;2022-10-22T08:59:36;19.15;;;12.00;;
32329;SDS011;18807;52.434;13.238;2022-10-22T09:07:19;17.83;;;11.32;;
32329;SDS011;18807;52.434;13.238;2022-10-22T09:22:30;16.05;;;10.88;;
32329;SDS011;18807;52.434;13.238;2022-10-22T09:30:10;19.60;;;11.50;;
32329;SDS011;18807;52.434;13.238;2022-10-22T09:37:50;20.38;;;12.77;;
32329;SDS011;18807;52.434;13.238;2022-10-22T09:45:26;23.85;;;14.82;;
32329;SDS011;18807;52.434;13.238;2022-10-22T09:53:03;19.70;;;12.43;;
32329;SDS011;18807;52.434;13.238;2022-10-22T10:00:38;20.50;;;13.32;;
32329;SDS011;18807;52.434;13.238;2022-10-22T10:08:15;23.08;;;12.57;;
32329;SDS011;18807;52.434;13.238;2022-10-22T10:15:52;22.40;;;13.50;;
32329;SDS011;18807;52.434;13.238;2022-10-22T10:23:31;18.65;;;11.98;;
32329;SDS011;18807;52.434;13.238;2022-10-22T10:31:16;16.92;;;10.80;;
32329;SDS011;18807;52.434;13.238;2022-10-22T10:39:02;17.48;;;10.57;;
32329;SDS011;18807;52.434;13.238;2022-10-22T10:46:42;15.10;;;9.38;;
32329;SDS011;18807;52.434;13.238;2022-10-22T10:54:29;16.20;;;9.60;;
32329;SDS011;18807;52.434;13.238;2022-10-22T11:02:18;12.98;;;9.10;;
32329;SDS011;18807;52.434;13.238;2022-10-22T11:10:15;18.67;;;11.30;;
32329;SDS011;18807;52.434;13.238;2022-10-22T11:17:58;14.98;;;9.38;;
32329;SDS011;18807;52.434;13.238;2022-10-22T11:25:41;11.27;;;7.57;;
32329;SDS011;18807;52.434;13.238;2022-10-22T11:33:18;12.75;;;8.40;;
32329;SDS011;18807;52.434;13.238;2022-10-22T11:40:58;10.93;;;6.60;;
32329;SDS011;18807;52.434;13.238;2022-10-22T11:48:35;14.05;;;9.63;;
32329;SDS011;18807;52.434;13.238;2022-10-22T11:56:21;8.25;;;5.88;;
32329;SDS011;18807;52.434;13.238;2022-10-22T12:12:00;9.75;;;5.00;;
32329;SDS011;18807;52.434;13.238;2022-10-22T12:19:35;8.00;;;5.63;;
32329;SDS011;18807;52.434;13.238;2022-10-22T12:27:17;7.30;;;3.63;;
32329;SDS011;18807;52.434;13.238;2022-10-22T12:34:54;6.60;;;4.05;;
32329;SDS011;18807;52.434;13.238;2022-10-22T12:42:29;7.75;;;4.00;;
32329;SDS011;18807;52.434;13.238;2022-10-22T12:57:38;5.38;;;3.20;;
32329;SDS011;18807;52.434;13.238;2022-10-22T13:05:14;5.63;;;2.72;;
32329;SDS011;18807;52.434;13.238;2022-10-22T13:12:55;5.97;;;2.53;;
32329;SDS011;18807;52.434;13.238;2022-10-22T13:20:31;3.22;;;2.60;;
32329;SDS011;18807;52.434;13.238;2022-10-22T13:28:16;7.70;;;2.40;;
32329;SDS011;18807;52.434;13.238;2022-10-22T13:35:53;5.43;;;3.00;;
32329;SDS011;18807;52.434;13.238;2022-10-22T13:43:30;3.70;;;2.40;;
32329;SDS011;18807;52.434;13.238;2022-10-22T13:51:05;3.40;;;1.70;;
32329;SDS011;18807;52.434;13.238;2022-10-22T13:58:47;4.50;;;2.10;;
32329;SDS011;18807;52.434;13.238;2022-10-22T14:06:21;4.55;;;1.98;;
32329;SDS011;18807;52.434;13.238;2022-10-22T14:13:56;3.83;;;2.10;;
32329;SDS011;18807;52.434;13.238;2022-10-22T14:21:32;4.97;;;2.17;;
32329;SDS011;18807;52.434;13.238;2022-10-22T14:29:09;4.53;;;1.67;;
32329;SDS011;18807;52.434;13.238;2022-10-22T14:36:43;5.00;;;2.00;;
32329;SDS011;18807;52.434;13.238;2022-10-22T14:44:18;5.90;;;1.95;;
32329;SDS011;18807;52.434;13.238;2022-10-22T14:59:27;3.28;;;1.90;;
32329;SDS011;18807;52.434;13.238;2022-10-22T15:07:01;5.78;;;1.80;;
32329;SDS011;18807;52.434;13.238;2022-10-22T15:14:36;3.22;;;1.63;;
32329;SDS011;18807;52.434;13.238;2022-10-22T15:29:45;10.68;;;3.10;;
32329;SDS011;18807;52.434;13.238;2022-10-22T15:37:19;6.55;;;3.22;;
32329;SDS011;18807;52.434;13.238;2022-10-22T15:44:56;6.80;;;3.10;;
32329;SDS011;18807;52.434;13.238;2022-10-22T15:52:31;6.82;;;3.13;;
32329;SDS011;18807;52.434;13.238;2022-10-22T16:00:07;5.65;;;3.08;;
32329;SDS011;18807;52.434;13.238;2022-10-22T16:07:42;5.85;;;2.67;;
32329;SDS011;18807;52.434;13.238;2022-10-22T16:15:17;5.88;;;2.50;;
32329;SDS011;18807;52.434;13.238;2022-10-22T16:22:51;3.38;;;2.25;;
32329;SDS011;18807;52.434;13.238;2022-10-22T16:30:26;5.07;;;3.33;;
32329;SDS011;18807;52.434;13.238;2022-10-22T16:45:35;5.38;;;3.10;;
32329;SDS011;18807;52.434;13.238;2022-10-22T17:00:44;4.47;;;3.13;;
32329;SDS011;18807;52.434;13.238;2022-10-22T17:08:17;8.55;;;3.65;;
32329;SDS011;18807;52.434;13.238;2022-10-22T17:15:52;5.20;;;4.13;;
32329;SDS011;18807;52.434;13.238;2022-10-22T17:23:33;7.65;;;4.32;;
32329;SDS011;18807;52.434;13.238;2022-10-22T17:31:09;7.10;;;4.82;;
32329;SDS011;18807;52.434;13.238;2022-10-22T17:38:49;7.95;;;4.95;;
32329;SDS011;18807;52.434;13.238;2022-10-22T17:46:28;8.15;;;5.72;;
32329;SDS011;18807;52.434;13.238;2022-10-22T17:54:07;10.55;;;5.95;;
32329;SDS011;18807;52.434;13.238;2022-10-22T18:01:43;9.07;;;6.30;;
32329;SDS011;18807;52.434;13.238;2022-10-22T18:09:18;12.07;;;6.88;;
32329;SDS011;18807;52.434;13.238;2022-10-22T18:16:54;10.35;;;5.60;;
32329;SDS011;18807;52.434;13.238;2022-10-22T18:32:03;10.95;;;7.78;;
